createdAt,value
2018-11-28T00:00:51.426Z,8.67
2018-11-28T00:04:58.253Z,8.48
2018-11-28T00:09:24.150Z,5.23
2018-11-28T00:13:31.540Z,5.05
2018-11-28T00:17:38.634Z,5.67
2018-11-28T00:21:46.238Z,7.13
2018-11-28T00:25:58.707Z,8.53
2018-11-28T00:30:01.182Z,9.13
2018-11-28T00:34:09.547Z,8.65
2018-11-28T00:38:18.249Z,6.63
2018-11-28T00:42:30.393Z,8.00
2018-11-28T00:46:38.147Z,6.42
2018-11-28T00:50:45.218Z,6.23
2018-11-28T00:54:52.095Z,5.17
2018-11-28T00:58:59.503Z,8.53
2018-11-28T01:03:06.528Z,7.67
2018-11-28T01:07:13.827Z,9.50
2018-11-28T01:11:21.270Z,6.93
2018-11-28T01:15:28.008Z,6.70
2018-11-28T01:19:34.855Z,6.57
2018-11-28T01:23:41.521Z,8.13
2018-11-28T01:27:49.032Z,9.15
2018-11-28T01:31:55.954Z,6.50
2018-11-28T01:36:02.998Z,6.40
2018-11-28T01:40:09.812Z,6.05
2018-11-28T01:44:16.621Z,6.40
2018-11-28T01:48:24.018Z,6.95
2018-11-28T01:52:30.788Z,3.72
2018-11-28T01:56:37.060Z,6.78
2018-11-28T02:00:44.193Z,5.80
2018-11-28T02:04:51.033Z,7.13
2018-11-28T02:08:57.748Z,11.40
2018-11-28T02:13:05.253Z,6.83
2018-11-28T02:17:11.854Z,6.13
2018-11-28T02:21:19.204Z,7.13
2018-11-28T02:25:26.342Z,6.30
2018-11-28T02:29:33.060Z,8.43
2018-11-28T02:33:41.344Z,5.13
2018-11-28T02:37:48.244Z,6.87
2018-11-28T02:41:55.270Z,6.40
2018-11-28T02:46:02.526Z,5.53
2018-11-28T02:50:09.445Z,5.27
2018-11-28T02:54:17.485Z,6.90
2018-11-28T02:58:24.629Z,9.77
2018-11-28T03:02:31.555Z,4.50
2018-11-28T03:06:38.299Z,6.85
2018-11-28T03:10:44.837Z,5.00
2018-11-28T03:14:51.462Z,6.00
2018-11-28T03:18:58.246Z,8.80
2018-11-28T03:23:10.890Z,7.83
2018-11-28T03:27:17.996Z,7.00
2018-11-28T03:31:25.005Z,7.33
2018-11-28T03:35:31.590Z,7.00
2018-11-28T03:39:40.625Z,10.35
2018-11-28T03:43:47.583Z,9.37
2018-11-28T03:47:54.451Z,9.37
2018-11-28T03:52:01.624Z,10.00
2018-11-28T03:56:08.144Z,7.20
2018-11-28T04:00:14.722Z,11.80
2018-11-28T04:04:21.393Z,8.95
2018-11-28T04:08:27.820Z,7.70
2018-11-28T04:12:34.715Z,9.08
2018-11-28T04:16:41.503Z,7.50
2018-11-28T04:20:48.382Z,9.70
2018-11-28T04:24:55.024Z,10.90
2018-11-28T04:29:01.672Z,6.60
2018-11-28T04:33:08.449Z,6.55
2018-11-28T04:37:14.651Z,6.83
2018-11-28T04:41:21.913Z,11.07
2018-11-28T04:45:28.808Z,9.63
2018-11-28T04:49:36.151Z,5.28
2018-11-28T04:53:43.163Z,8.60
2018-11-28T04:57:50.586Z,7.90
2018-11-28T05:01:57.174Z,6.40
2018-11-28T05:06:03.654Z,7.53
2018-11-28T05:10:10.335Z,5.87
2018-11-28T05:14:17.289Z,7.20
2018-11-28T05:18:23.695Z,8.75
2018-11-28T05:22:30.337Z,5.90
2018-11-28T05:26:37.544Z,8.23
2018-11-28T05:30:44.731Z,7.30
2018-11-28T05:34:52.074Z,4.25
2018-11-28T05:38:58.922Z,8.20
2018-11-28T05:43:06.055Z,6.55
2018-11-28T05:47:13.596Z,7.07
2018-11-28T05:51:20.263Z,5.40
2018-11-28T05:55:27.921Z,7.87
2018-11-28T05:59:35.319Z,5.67
2018-11-28T06:03:41.870Z,4.92
2018-11-28T06:07:48.945Z,5.85
2018-11-28T06:11:56.143Z,7.60
2018-11-28T06:21:12.450Z,6.93
2018-11-28T06:25:19.561Z,8.53
2018-11-28T06:29:26.545Z,7.80
2018-11-28T06:33:33.721Z,5.40
2018-11-28T06:37:40.472Z,11.57
2018-11-28T06:41:47.109Z,5.30
2018-11-28T06:45:53.680Z,5.75
2018-11-28T06:50:00.259Z,9.50
2018-11-28T06:54:06.823Z,4.10
2018-11-28T06:58:13.263Z,4.80
2018-11-28T07:02:19.421Z,8.63
2018-11-28T07:06:25.643Z,7.70
2018-11-28T07:10:32.241Z,4.60
2018-11-28T07:14:39.079Z,6.30
2018-11-28T07:18:46.880Z,7.67
2018-11-28T07:22:54.069Z,6.87
2018-11-28T07:27:01.264Z,5.23
2018-11-28T07:31:07.621Z,4.60
2018-11-28T07:35:14.810Z,5.60
2018-11-28T07:39:22.012Z,8.87
2018-11-28T07:43:28.856Z,5.07
2018-11-28T07:47:36.012Z,6.97
2018-11-28T07:51:42.688Z,6.60
2018-11-28T07:55:50.498Z,9.58
2018-11-28T07:59:58.766Z,5.97
2018-11-28T08:04:07.898Z,6.13
2018-11-28T08:08:14.800Z,5.07
2018-11-28T08:12:21.277Z,8.40
2018-11-28T08:16:28.186Z,6.10
2018-11-28T08:20:35.072Z,7.40
2018-11-28T08:24:41.809Z,5.40
2018-11-28T08:28:48.654Z,7.50
2018-11-28T08:32:55.457Z,9.63
2018-11-28T08:37:02.094Z,6.17
2018-11-28T08:41:09.425Z,9.00
2018-11-28T08:45:16.214Z,9.20
2018-11-28T08:49:23.537Z,5.33
2018-11-28T08:53:32.633Z,4.80
2018-11-28T08:57:40.643Z,5.57
2018-11-28T09:01:47.765Z,9.90
2018-11-28T09:05:54.625Z,3.70
2018-11-28T09:10:02.247Z,7.30
2018-11-28T09:14:09.587Z,6.92
2018-11-28T09:18:17.602Z,6.67
2018-11-28T09:22:25.423Z,7.37
2018-11-28T09:26:32.850Z,8.00
2018-11-28T09:30:40.993Z,6.47
2018-11-28T09:34:47.593Z,5.45
2018-11-28T09:38:55.019Z,7.12
2018-11-28T09:43:02.585Z,10.88
2018-11-28T09:47:10.734Z,9.70
2018-11-28T09:51:18.227Z,6.20
2018-11-28T09:55:25.631Z,4.10
2018-11-28T09:59:31.918Z,6.90
2018-11-28T10:03:39.134Z,5.35
2018-11-28T10:07:45.600Z,6.70
2018-11-28T10:11:52.727Z,8.97
2018-11-28T10:15:59.225Z,10.23
2018-11-28T10:20:05.605Z,6.50
2018-11-28T10:24:12.551Z,6.00
2018-11-28T10:28:20.099Z,7.70
2018-11-28T10:32:27.683Z,11.73
2018-11-28T10:36:35.522Z,11.27
2018-11-28T10:40:45.676Z,11.47
2018-11-28T10:44:53.213Z,9.35
2018-11-28T10:49:00.177Z,7.20
2018-11-28T10:53:07.023Z,10.68
2018-11-28T10:57:14.144Z,6.03
2018-11-28T11:01:25.002Z,10.65
2018-11-28T11:05:35.519Z,10.48
2018-11-28T11:09:46.301Z,10.47
2018-11-28T11:13:57.328Z,14.75
2018-11-28T11:18:10.269Z,11.25
2018-11-28T11:22:12.707Z,12.80
2018-11-28T11:26:19.161Z,10.03
2018-11-28T11:30:26.363Z,11.48
2018-11-28T11:34:33.778Z,9.77
2018-11-28T11:38:40.468Z,13.93
2018-11-28T11:42:46.986Z,9.00
2018-11-28T11:46:53.607Z,11.57
2018-11-28T11:51:00.134Z,14.07
2018-11-28T11:55:07.154Z,11.70
2018-11-28T11:59:14.087Z,16.95
2018-11-28T12:03:21.238Z,15.80
2018-11-28T12:07:27.490Z,13.85
2018-11-28T12:11:34.365Z,15.70
2018-11-28T12:15:41.282Z,12.53
2018-11-28T12:19:48.478Z,19.07
2018-11-28T12:23:55.615Z,15.90
2018-11-28T12:28:02.799Z,9.57
2018-11-28T12:32:09.251Z,19.23
2018-11-28T12:36:16.190Z,15.72
2018-11-28T12:40:23.654Z,16.53
2018-11-28T12:44:30.360Z,23.07
2018-11-28T12:48:36.976Z,21.57
2018-11-28T12:52:43.786Z,18.45
2018-11-28T12:56:50.844Z,15.60
2018-11-28T13:00:57.314Z,10.73
2018-11-28T13:05:03.883Z,11.90
2018-11-28T13:09:10.866Z,11.75
2018-11-28T13:13:18.137Z,10.03
2018-11-28T13:17:24.787Z,11.15
2018-11-28T13:21:32.537Z,10.33
2018-11-28T13:25:39.299Z,11.30
2018-11-28T13:29:46.721Z,13.90
2018-11-28T13:33:53.763Z,15.73
2018-11-28T13:38:00.391Z,15.37
2018-11-28T13:42:07.074Z,13.43
2018-11-28T13:46:13.939Z,12.33
2018-11-28T13:50:20.710Z,17.87
2018-11-28T13:54:27.287Z,10.83
2018-11-28T13:58:34.210Z,12.40
2018-11-28T14:02:41.347Z,13.87
2018-11-28T14:06:48.315Z,7.72
2018-11-28T14:10:54.737Z,10.73
2018-11-28T14:15:01.586Z,9.53
2018-11-28T14:19:08.332Z,9.55
2018-11-28T14:23:15.444Z,6.97
2018-11-28T14:27:21.994Z,13.77
2018-11-28T14:31:28.518Z,18.27
2018-11-28T14:35:36.013Z,13.73
2018-11-28T14:39:43.341Z,12.50
2018-11-28T14:43:50.293Z,16.80
2018-11-28T14:47:57.018Z,15.63
2018-11-28T14:52:03.649Z,13.40
2018-11-28T14:56:11.680Z,9.03
2018-11-28T15:00:22.230Z,8.87
2018-11-28T15:04:29.167Z,13.53
2018-11-28T15:08:36.097Z,10.23
2018-11-28T15:12:42.528Z,8.17
2018-11-28T15:16:49.828Z,8.85
2018-11-28T15:20:56.917Z,14.38
2018-11-28T15:25:03.615Z,17.10
2018-11-28T15:29:10.507Z,11.00
2018-11-28T15:33:17.797Z,11.80
2018-11-28T15:37:24.485Z,10.17
2018-11-28T15:41:31.758Z,17.43
2018-11-28T15:45:38.822Z,12.50
2018-11-28T15:49:44.837Z,9.58
2018-11-28T15:53:51.853Z,12.37
2018-11-28T15:57:58.939Z,13.18
2018-11-28T16:02:05.510Z,11.50
2018-11-28T16:06:12.301Z,22.03
2018-11-28T16:10:22.491Z,12.15
2018-11-28T16:14:31.133Z,17.53
2018-11-28T16:18:38.080Z,15.70
2018-11-28T16:22:45.269Z,11.70
2018-11-28T16:26:52.383Z,16.00
2018-11-28T16:31:00.328Z,14.35
2018-11-28T16:35:07.193Z,16.30
2018-11-28T16:39:13.818Z,13.17
2018-11-28T16:43:20.566Z,11.57
2018-11-28T16:47:27.466Z,9.70
2018-11-28T16:51:34.529Z,10.70
2018-11-28T16:55:41.410Z,9.40
2018-11-28T16:59:48.644Z,16.10
2018-11-28T17:03:55.959Z,12.03
2018-11-28T17:08:02.499Z,14.53
2018-11-28T17:12:09.096Z,9.73
2018-11-28T17:16:16.270Z,9.80
2018-11-28T17:20:23.974Z,8.40
2018-11-28T17:24:33.194Z,12.33
2018-11-28T17:28:40.450Z,8.90
2018-11-28T17:32:47.741Z,8.80
2018-11-28T17:36:55.070Z,12.53
2018-11-28T17:41:02.251Z,13.43
2018-11-28T17:45:09.175Z,9.70
2018-11-28T17:49:16.139Z,7.77
2018-11-28T17:53:23.527Z,12.53
2018-11-28T17:57:30.248Z,11.80
2018-11-28T18:01:37.175Z,10.70
2018-11-28T18:05:44.629Z,11.40
2018-11-28T18:09:51.346Z,14.00
2018-11-28T18:14:01.389Z,5.73
2018-11-28T18:18:07.410Z,10.33
2018-11-28T18:22:14.216Z,10.78
2018-11-28T18:26:21.894Z,11.07
2018-11-28T18:30:29.134Z,12.90
2018-11-28T18:34:35.784Z,14.35
2018-11-28T18:38:42.967Z,10.27
2018-11-28T18:42:49.794Z,45.70
2018-11-28T18:46:56.381Z,68.73
2018-11-28T18:51:03.497Z,42.47
2018-11-28T18:55:16.524Z,27.32
2018-11-28T18:59:20.133Z,28.67
2018-11-28T19:03:27.283Z,23.13
2018-11-28T19:07:34.478Z,14.10
2018-11-28T19:11:41.849Z,13.97
2018-11-28T19:15:48.726Z,16.00
2018-11-28T19:19:55.654Z,15.50
2018-11-28T19:24:02.401Z,10.80
2018-11-28T19:28:09.051Z,8.83
2018-11-28T19:32:15.961Z,11.50
2018-11-28T19:36:22.929Z,13.30
2018-11-28T19:40:29.602Z,10.63
2018-11-28T19:44:36.701Z,10.00
2018-11-28T19:48:44.357Z,8.20
2018-11-28T19:52:51.319Z,10.38
2018-11-28T19:56:58.289Z,7.65
2018-11-28T20:01:04.918Z,11.18
2018-11-28T20:05:11.726Z,8.28
2018-11-28T20:09:24.428Z,6.23
2018-11-28T20:13:31.187Z,10.03
2018-11-28T20:17:38.662Z,9.87
2018-11-28T20:21:45.576Z,10.33
2018-11-28T20:25:52.181Z,7.90
2018-11-28T20:29:59.488Z,15.47
2018-11-28T20:34:06.003Z,7.80
2018-11-28T20:38:13.021Z,9.48
2018-11-28T20:42:19.970Z,14.23
2018-11-28T20:46:26.807Z,9.23
2018-11-28T20:50:34.737Z,8.23
2018-11-28T20:54:41.848Z,7.05
2018-11-28T20:58:50.049Z,9.40
2018-11-28T21:02:57.481Z,17.37
2018-11-28T21:07:05.709Z,12.77
2018-11-28T21:11:12.468Z,14.33
2018-11-28T21:15:18.976Z,17.97
2018-11-28T21:19:25.852Z,14.03
2018-11-28T21:23:33.756Z,12.23
2018-11-28T21:27:41.181Z,14.70
2018-11-28T21:31:47.953Z,10.50
2018-11-28T21:35:55.039Z,14.93
2018-11-28T21:40:02.354Z,18.50
2018-11-28T21:44:09.615Z,13.23
2018-11-28T21:48:17.249Z,17.47
2018-11-28T21:52:24.254Z,16.40
2018-11-28T21:56:31.982Z,14.87
2018-11-28T22:00:39.542Z,16.30
2018-11-28T22:04:47.200Z,12.10
2018-11-28T22:08:54.005Z,11.30
2018-11-28T22:13:01.159Z,12.13
2018-11-28T22:17:08.452Z,8.47
2018-11-28T22:21:15.148Z,9.97
2018-11-28T22:25:22.331Z,8.40
2018-11-28T22:29:30.758Z,18.90
2018-11-28T22:33:38.471Z,6.17
2018-11-28T22:37:45.753Z,10.93
2018-11-28T22:41:52.498Z,11.30
2018-11-28T22:45:59.547Z,10.53
2018-11-28T22:50:06.565Z,11.60
2018-11-28T22:54:17.795Z,8.60
2018-11-28T22:58:24.759Z,11.87
2018-11-28T23:02:32.990Z,9.73
2018-11-28T23:06:40.821Z,9.25
2018-11-28T23:10:48.076Z,14.87
2018-11-28T23:14:54.271Z,12.00
2018-11-28T23:19:00.969Z,8.40
2018-11-28T23:23:07.813Z,8.20
2018-11-28T23:27:16.154Z,11.00
2018-11-28T23:31:23.678Z,12.20
2018-11-28T23:35:30.679Z,10.30
2018-11-28T23:39:38.179Z,13.37
2018-11-28T23:43:44.980Z,9.00
2018-11-28T23:47:53.385Z,19.07
2018-11-28T23:52:01.595Z,8.58
2018-11-28T23:56:09.748Z,5.40
